Time;durP1;ratioP1;P1;durP2;ratioP2;P2;SDS_P1;SDS_P2;PMS_P1;PMS_P2;Temp;Humidity;BMP_temperature;BMP_pressure;BME280_temperature;BME280_humidity;BME280_pressure;Samples;Min_cycle;Max_cycle;Signal;HPM_P1;HPM_P2
2023/10/17 00:00:51;;;;;;;;;3.00;2.00;;;;;12.11;100.00;101173.41;5066152;28;45498;-75
2023/10/17 00:03:16;;;;;;;;;2.75;2.75;;;;;12.13;100.00;101176.06;5058819;28;45548;-74
2023/10/17 00:05:42;;;;;;;;;2.00;2.00;;;;;12.10;100.00;101162.81;5059709;28;46658;-75
2023/10/17 00:08:09;;;;;;;;;4.00;2.75;;;;;12.18;100.00;101177.00;5061630;28;45371;-75
2023/10/17 00:10:44;;;;;;;;;6.75;2.25;;;;;12.16;100.00;101174.34;5062568;28;45586;-74
2023/10/17 00:13:25;;;;;;;;;6.75;3.00;;;;;12.16;100.00;101170.81;5061239;28;45389;-73
2023/10/17 00:15:52;;;;;;;;;2.50;2.00;;;;;12.17;100.00;101170.81;5062705;28;45761;-76
2023/10/17 00:18:20;;;;;;;;;1.00;1.00;;;;;12.17;100.00;101176.13;5064228;28;45435;-73
2023/10/17 00:20:46;;;;;;;;;1.50;1.50;;;;;12.14;100.00;101176.06;5058103;27;45472;-74
2023/10/17 00:23:14;;;;;;;;;6.00;2.00;;;;;12.04;100.00;101155.72;5066674;28;45450;-74
2023/10/17 00:25:42;;;;;;;;;2.00;1.75;;;;;11.99;100.00;101153.00;5060637;28;46924;-74
2023/10/17 00:28:10;;;;;;;;;3.00;3.00;;;;;12.03;100.00;101160.09;5058775;28;45477;-74
2023/10/17 00:30:37;;;;;;;;;1.75;1.75;;;;;12.04;100.00;101161.88;5057440;28;45412;-75
2023/10/17 00:33:05;;;;;;;;;2.75;2.25;;;;;12.03;100.00;101154.78;5061273;28;45463;-74
2023/10/17 00:35:38;;;;;;;;;3.00;3.00;;;;;12.04;100.00;101146.00;5057470;28;47905;-74
2023/10/17 00:38:07;;;;;;;;;3.75;2.00;;;;;12.04;100.00;101135.41;5060819;28;45439;-74
2023/10/17 00:40:35;;;;;;;;;7.50;2.00;;;;;12.05;100.00;101131.91;5065359;28;45526;-74
2023/10/17 00:43:04;;;;;;;;;2.50;2.50;;;;;12.09;100.00;101127.53;5057237;27;45457;-74
2023/10/17 00:45:30;;;;;;;;;6.25;3.00;;;;;12.08;100.00;101136.31;5058817;28;46708;-74
2023/10/17 00:47:56;;;;;;;;;6.00;2.00;;;;;12.04;100.00;101132.78;5064066;27;45490;-74
2023/10/17 00:50:21;;;;;;;;;4.75;3.00;;;;;12.03;100.00;101115.09;5060953;28;45560;-74
2023/10/17 00:52:49;;;;;;;;;2.00;2.00;;;;;12.06;100.00;101108.97;5056111;28;64745;-74
2023/10/17 00:55:15;;;;;;;;;3.25;2.50;;;;;12.01;100.00;101092.16;5058543;28;47776;-73
2023/10/17 00:57:40;;;;;;;;;2.00;2.00;;;;;12.00;100.00;101098.31;5058663;28;45384;-76
2023/10/17 01:00:35;;;;;;;;;2.75;2.00;;;;;11.99;100.00;101100.09;5056443;28;45477;-74
2023/10/17 01:03:10;;;;;;;;;2.00;2.00;;;;;12.04;100.00;101123.94;5058258;28;45429;-74
2023/10/17 01:05:46;;;;;;;;;3.75;3.75;;;;;12.00;100.00;101103.63;5058587;28;45842;-75
2023/10/17 01:08:12;;;;;;;;;2.00;2.00;;;;;12.01;100.00;101114.22;5042713;28;45435;-74
2023/10/17 01:10:38;;;;;;;;;3.00;2.75;;;;;12.04;100.00;101114.25;5059967;28;45296;-74
2023/10/17 01:13:03;;;;;;;;;3.00;1.75;;;;;12.04;100.00;101108.06;5063696;28;45456;-74
2023/10/17 01:15:32;;;;;;;;;6.25;2.75;;;;;11.99;100.00;101099.19;5060900;28;59559;-73
2023/10/17 01:18:03;;;;;;;;;2.00;2.00;;;;;11.94;100.00;101103.56;5065605;28;45153;-74
2023/10/17 01:20:29;;;;;;;;;6.25;4.00;;;;;11.96;100.00;101112.38;5054136;28;45239;-75
2023/10/17 01:22:56;;;;;;;;;4.00;3.00;;;;;11.89;100.00;101097.34;5067817;28;45611;-73
2023/10/17 01:25:38;;;;;;;;;2.50;1.00;;;;;11.90;100.00;101094.69;5063121;28;46474;-73
2023/10/17 01:28:06;;;;;;;;;6.25;3.25;;;;;11.89;100.00;101095.56;5062885;28;45471;-74
2023/10/17 01:30:32;;;;;;;;;3.75;2.75;;;;;11.90;100.00;101093.81;5056524;28;45512;-73
2023/10/17 01:32:58;;;;;;;;;2.75;2.75;;;;;11.85;100.00;101103.47;5062279;28;45618;-74
2023/10/17 01:35:24;;;;;;;;;2.00;2.00;;;;;11.86;100.00;101097.28;5056425;28;45555;-74
2023/10/17 01:37:51;;;;;;;;;1.50;1.50;;;;;11.88;100.00;101104.38;5057221;28;45647;-75
2023/10/17 01:40:23;;;;;;;;;2.00;2.00;;;;;11.86;100.00;101108.75;5058358;28;45398;-73
2023/10/17 01:42:51;;;;;;;;;2.67;0.00;;;;;11.83;100.00;101108.75;5060738;28;45589;-74
2023/10/17 01:45:21;;;;;;;;;3.25;2.00;;;;;11.77;100.00;101090.09;5077438;27;45622;-74
2023/10/17 01:47:46;;;;;;;;;2.25;2.25;;;;;11.77;100.00;101103.31;5063343;27;45508;-73
2023/10/17 01:50:12;;;;;;;;;3.00;1.00;;;;;11.69;100.00;101102.38;5056897;28;45708;-73
2023/10/17 01:52:42;;;;;;;;;2.25;2.00;;;;;11.63;100.00;101104.97;5057112;28;45574;-74
2023/10/17 01:55:10;;;;;;;;;3.25;2.00;;;;;11.53;100.00;101104.84;5055936;28;47416;-75
2023/10/17 01:57:40;;;;;;;;;3.00;2.00;;;;;11.55;100.00;101108.38;5056933;28;45439;-74
2023/10/17 02:02:57;;;;;;;;;2.00;2.00;;;;;11.48;100.00;101119.78;5060931;28;45321;-73
2023/10/17 02:05:22;;;;;;;;;6.75;2.25;;;;;11.43;100.00;101110.91;5056368;28;47391;-73
2023/10/17 02:07:48;;;;;;;;;4.25;3.00;;;;;11.40;100.00;101102.94;5057958;28;45232;-75
2023/10/17 02:10:17;;;;;;;;;3.50;3.25;;;;;11.37;100.00;101109.94;5053839;28;63576;-76
2023/10/17 02:12:43;;;;;;;;;3.75;3.00;;;;;11.33;100.00;101109.00;5063659;28;45522;-77
2023/10/17 02:15:11;;;;;;;;;6.75;2.50;;;;;11.33;100.00;101111.66;5060353;28;46661;-75
2023/10/17 02:17:37;;;;;;;;;7.00;2.00;;;;;11.33;100.00;101110.78;5061109;28;45420;-75
2023/10/17 02:20:10;;;;;;;;;5.50;3.00;;;;;11.31;100.00;101100.19;5061948;28;62068;-74
2023/10/17 02:22:44;;;;;;;;;3.25;3.00;;;;;11.17;100.00;101078.84;5057548;28;45353;-73
2023/10/17 02:25:14;;;;;;;;;5.50;2.00;;;;;11.25;100.00;101092.19;5066694;28;47461;-74
2023/10/17 02:27:40;;;;;;;;;4.25;2.00;;;;;11.27;100.00;101091.31;5063501;28;45898;-76
2023/10/17 02:30:10;;;;;;;;;3.25;3.00;;;;;11.27;100.00;101103.66;5059023;28;58038;-73
2023/10/17 02:32:35;;;;;;;;;2.75;2.00;;;;;11.24;100.00;101096.59;5064445;28;45338;-73
2023/10/17 02:35:03;;;;;;;;;4.00;2.25;;;;;11.19;100.00;101092.09;5063032;28;61614;-73
2023/10/17 02:37:31;;;;;;;;;3.00;3.00;;;;;11.17;100.00;101107.94;5065969;28;45283;-74
2023/10/17 02:40:06;;;;;;;;;2.50;2.50;;;;;11.16;100.00;101100.00;5067363;27;45383;-74
2023/10/17 02:42:31;;;;;;;;;2.75;2.75;;;;;11.16;100.00;101100.00;5060400;28;45773;-73
2023/10/17 02:44:57;;;;;;;;;6.25;3.25;;;;;11.17;100.00;101110.56;5063098;28;65925;-73
2023/10/17 02:47:22;;;;;;;;;3.00;3.00;;;;;11.13;100.00;101098.22;5068695;28;45424;-74
2023/10/17 02:49:47;;;;;;;;;2.50;2.00;;;;;11.13;100.00;101090.28;5063940;28;62342;-74
2023/10/17 02:52:17;;;;;;;;;2.75;2.75;;;;;11.10;100.00;101105.19;5063332;28;45440;-75
2023/10/17 02:55:23;;;;;;;;;4.25;2.00;;;;;11.17;100.00;101112.31;5058104;28;47011;-74
2023/10/17 02:57:34;;;;;;;;;4.00;2.75;;;;;11.12;100.00;101106.97;5060507;28;45315;-73
2023/10/17 03:00:19;;;;;;;;;5.75;2.00;;;;;11.16;100.00;101110.56;5062271;28;45581;-74
2023/10/17 03:02:48;;;;;;;;;5.50;2.75;;;;;11.14;100.00;101105.25;5059231;28;45229;-75
2023/10/17 03:05:13;;;;;;;;;4.50;4.25;;;;;11.12;100.00;101104.34;5059099;28;46492;-73
2023/10/17 03:07:39;;;;;;;;;2.25;2.25;;;;;11.11;100.00;101102.56;5060261;28;45513;-73
2023/10/17 03:10:05;;;;;;;;;7.00;3.00;;;;;11.12;100.00;101100.81;5061309;28;46038;-74
2023/10/17 03:12:40;;;;;;;;;3.50;3.00;;;;;11.14;100.00;101096.44;5062439;28;45458;-73
2023/10/17 03:17:40;;;;;;;;;4.75;2.75;;;;;11.10;100.00;101094.63;5063720;28;45447;-74
2023/10/17 03:20:09;;;;;;;;;4.25;2.75;;;;;11.05;100.00;101084.00;5061187;28;61149;-73
2023/10/17 03:22:34;;;;;;;;;5.00;3.25;;;;;11.09;100.00;101090.22;5082680;27;45626;-73
2023/10/17 03:25:01;;;;;;;;;3.50;3.00;;;;;11.10;100.00;101095.50;5064256;28;45876;-75
2023/10/17 03:27:37;;;;;;;;;4.00;3.00;;;;;11.12;100.00;101099.03;5059235;28;45470;-74
2023/10/17 03:30:11;;;;;;;;;8.75;3.25;;;;;11.09;100.00;101085.81;5060206;28;45400;-75
2023/10/17 03:32:52;;;;;;;;;3.50;3.50;;;;;11.08;100.00;101091.06;5068788;28;45396;-74
2023/10/17 03:35:20;;;;;;;;;6.00;2.75;;;;;11.08;100.00;101083.13;5052618;28;47312;-74
2023/10/17 03:37:45;;;;;;;;;3.00;3.00;;;;;11.07;100.00;101089.28;5060610;28;45483;-74
2023/10/17 03:40:29;;;;;;;;;3.00;3.00;;;;;11.10;100.00;101086.69;5061626;28;66171;-76
2023/10/17 03:42:55;;;;;;;;;3.25;3.25;;;;;11.08;100.00;101084.03;5053630;28;45546;-74
2023/10/17 03:47:47;;;;;;;;;6.25;4.00;;;;;11.04;100.00;101089.28;5064656;28;45243;-74
2023/10/17 03:50:31;;;;;;;;;3.00;3.00;;;;;11.02;100.00;101092.78;5061309;28;45550;-75
2023/10/17 03:53:04;;;;;;;;;5.00;3.75;;;;;11.08;100.00;101101.63;5057336;28;45419;-73
2023/10/17 03:55:29;;;;;;;;;5.75;4.75;;;;;11.07;100.00;101087.53;5065104;28;46397;-73
2023/10/17 03:57:55;;;;;;;;;4.75;3.75;;;;;11.04;100.00;101076.94;5063478;28;45332;-73
2023/10/17 04:00:41;;;;;;;;;6.25;2.50;;;;;11.08;100.00;101077.84;5061169;28;45223;-75
2023/10/17 04:03:10;;;;;;;;;6.25;4.25;;;;;11.13;100.00;101086.72;5065245;28;45440;-74
2023/10/17 04:05:38;;;;;;;;;4.25;4.25;;;;;11.11;100.00;101089.34;5057286;28;46466;-74
2023/10/17 04:08:04;;;;;;;;;2.75;2.75;;;;;11.10;100.00;101090.22;5059257;28;46060;-75
2023/10/17 04:10:39;;;;;;;;;5.75;3.75;;;;;11.07;100.00;101090.16;5057423;27;45353;-74
2023/10/17 04:16:27;;;;;;;;;5.75;5.75;;;;;11.02;100.00;101081.28;5045866;28;46410;-73
2023/10/17 04:18:55;;;;;;;;;6.00;4.25;;;;;11.02;100.00;101081.28;5057428;28;45582;-74
2023/10/17 04:21:36;;;;;;;;;4.25;4.25;;;;;10.97;100.00;101083.91;5063100;28;45409;-73
2023/10/17 04:24:05;;;;;;;;;5.00;5.00;;;;;10.93;100.00;101086.47;5059145;28;45653;-73
2023/10/17 04:26:34;;;;;;;;;7.00;3.00;;;;;10.87;100.00;101076.72;5062359;27;46386;-74
2023/10/17 04:29:21;;;;;;;;;9.50;5.50;;;;;10.88;100.00;101093.47;5061630;28;45725;-73
2023/10/17 04:31:47;;;;;;;;;7.50;2.25;;;;;10.86;100.00;101095.16;5054499;28;45421;-74
2023/10/17 04:34:21;;;;;;;;;6.75;4.25;;;;;10.81;100.00;101087.16;5063183;28;45737;-74
2023/10/17 04:36:51;;;;;;;;;4.50;4.50;;;;;10.83;100.00;101098.66;5074678;27;46539;-75
2023/10/17 04:39:29;;;;;;;;;7.25;3.00;;;;;10.80;100.00;101085.41;5063702;28;45238;-74
2023/10/17 04:44:22;;;;;;;;;4.25;4.25;;;;;10.77;100.00;101074.81;5057683;28;45502;-73
2023/10/17 04:46:50;;;;;;;;;5.75;5.00;;;;;10.81;100.00;101081.88;5051325;28;45911;-75
2023/10/17 04:49:18;;;;;;;;;6.00;4.25;;;;;10.80;100.00;101073.94;5052205;28;45282;-73
2023/10/17 04:51:44;;;;;;;;;4.25;4.25;;;;;10.76;100.00;101070.41;5054501;28;45460;-73
2023/10/17 04:54:39;;;;;;;;;3.50;3.50;;;;;10.77;100.00;101060.72;5055831;28;45749;-75
2023/10/17 04:57:16;;;;;;;;;5.75;3.00;;;;;10.78;100.00;101067.78;5054410;28;46576;-75
2023/10/17 06:18:49;;;;;;;;;6.75;6.75;;;;;10.88;100.00;101086.41;5054467;28;45518;-74
2023/10/17 06:21:19;;;;;;;;;10.25;6.50;;;;;10.88;100.00;101077.59;5053984;28;45734;-75
2023/10/17 06:26:58;;;;;;;;;5.25;5.25;;;;;10.47;100.00;101094.59;5052222;28;45546;-75
2023/10/17 06:34:21;;;;;;;;;7.00;5.50;;;;;10.03;100.00;101078.03;5043805;28;46562;-74
2023/10/17 06:36:50;;;;;;;;;5.00;5.00;;;;;10.06;100.00;101093.00;5040789;28;45428;-75
2023/10/17 06:39:19;;;;;;;;;10.00;7.75;;;;;9.96;100.00;101089.34;5047340;28;45514;-76
2023/10/17 06:41:46;;;;;;;;;7.25;6.25;;;;;9.93;100.00;101091.91;5044738;28;45511;-74
2023/10/17 06:44:16;;;;;;;;;10.00;7.25;;;;;9.83;100.00;101093.50;5039998;28;46742;-74
2023/10/17 06:47:08;;;;;;;;;8.50;8.50;;;;;9.74;100.00;101097.69;5040953;28;45230;-74
2023/10/17 06:52:19;;;;;;;;;7.50;7.50;;;;;9.63;100.00;101092.22;5051839;28;45431;-76
2023/10/17 06:54:52;;;;;;;;;10.75;8.25;;;;;9.60;100.00;101095.72;5053797;28;46472;-76
2023/10/17 06:57:23;;;;;;;;;6.75;5.75;;;;;9.65;100.00;101091.41;5052052;28;45526;-75
2023/10/17 06:59:53;;;;;;;;;8.25;8.25;;;;;9.66;100.00;101089.66;5053934;28;45502;-74
2023/10/17 07:02:27;;;;;;;;;9.75;7.25;;;;;9.75;100.00;101099.47;5054279;28;45294;-74
2023/10/17 07:04:55;;;;;;;;;8.75;7.00;;;;;9.74;100.00;101092.44;5054814;28;45830;-72
2023/10/17 07:07:23;;;;;;;;;11.25;7.25;;;;;9.77;100.00;101093.38;5052899;28;45633;-72
2023/10/17 07:09:52;;;;;;;;;6.00;6.00;;;;;9.75;100.00;101088.94;5049203;28;45392;-72
2023/10/17 07:12:19;;;;;;;;;9.25;6.75;;;;;9.77;100.00;101088.09;5045656;28;45770;-72
2023/10/17 07:14:48;;;;;;;;;11.25;9.25;;;;;9.80;100.00;101092.53;5055354;28;47480;-72
2023/10/17 07:17:25;;;;;;;;;11.00;8.25;;;;;9.90;100.00;101087.44;5055221;28;45479;-72
2023/10/17 07:19:58;;;;;;;;;6.75;6.25;;;;;9.92;100.00;101093.66;5055821;28;45832;-72
2023/10/17 07:22:24;;;;;;;;;7.75;6.00;;;;;10.00;100.00;101095.53;5056619;28;45630;-72
2023/10/17 07:24:50;;;;;;;;;7.75;7.75;;;;;10.01;100.00;101092.03;5056872;28;46484;-72
2023/10/17 07:27:18;;;;;;;;;11.00;8.00;;;;;10.05;100.00;101088.59;5057223;28;45412;-72
2023/10/17 07:30:03;;;;;;;;;12.75;10.50;;;;;10.12;100.00;101080.81;5057995;28;45484;-73
2023/10/17 07:32:44;;;;;;;;;10.75;10.50;;;;;10.17;100.00;101081.78;5058872;28;45348;-72
2023/10/17 07:35:10;;;;;;;;;9.75;7.00;;;;;10.19;100.00;101082.69;5058356;28;45629;-72
2023/10/17 07:37:48;;;;;;;;;10.50;8.50;;;;;10.25;100.00;101078.41;5058549;28;45312;-72
2023/10/17 07:42:41;;;;;;;;;9.50;8.50;;;;;10.36;100.00;101084.75;5058654;28;46529;-72
2023/10/17 07:45:14;;;;;;;;;5.25;3.25;;;;;10.44;100.00;101098.97;5057569;28;46130;-73
2023/10/17 07:47:41;;;;;;;;;7.75;7.75;;;;;10.46;100.00;101095.47;5056330;28;45527;-72
2023/10/17 07:50:13;;;;;;;;;8.00;8.00;;;;;10.53;100.00;101099.09;5057135;28;45478;-73
2023/10/17 07:52:47;;;;;;;;;7.00;6.50;;;;;10.60;100.00;101089.50;5057697;28;45271;-72
2023/10/17 07:57:53;;;;;;;;;17.75;10.50;;;;;10.72;100.00;101087.94;5058042;28;45441;-71
2023/10/17 08:00:36;;;;;;;;;12.00;8.75;;;;;10.74;100.00;101080.91;5051477;28;45574;-72
2023/10/17 08:03:17;;;;;;;;;10.75;8.00;;;;;10.84;100.00;101087.22;5047400;28;45520;-74
2023/10/17 08:06:05;;;;;;;;;7.00;7.00;;;;;10.84;100.00;101084.59;5057875;28;46613;-72
2023/10/17 08:08:43;;;;;;;;;10.75;7.50;;;;;10.88;100.00;101074.97;5057448;28;45462;-72
2023/10/17 08:11:54;;;;;;;;;9.75;8.50;;;;;10.96;100.00;101090.03;5056454;28;45515;-73
2023/10/17 08:14:01;;;;;;;;;8.00;7.25;;;;;10.99;100.00;101074.22;5042809;28;45436;-73
2023/10/17 08:16:29;;;;;;;;;14.50;11.75;;;;;11.07;100.00;101082.25;5056041;28;46809;-72
2023/10/17 08:19:12;;;;;;;;;15.00;9.00;;;;;11.17;100.00;101080.63;5057534;28;45450;-72
2023/10/17 08:22:10;;;;;;;;;11.25;11.00;;;;;11.21;100.00;101083.31;5051583;28;45458;-72
2023/10/17 08:27:17;;;;;;;;;11.00;8.50;;;;;11.27;100.00;101074.56;5057355;28;45590;-72
2023/10/17 08:29:43;;;;;;;;;12.50;10.25;;;;;11.30;100.00;101071.09;5054869;28;45491;-72
2023/10/17 08:32:38;;;;;;;;;11.75;8.75;;;;;11.35;100.00;101082.63;5054465;28;45518;-73
2023/10/17 08:35:03;;;;;;;;;12.25;8.25;;;;;11.38;100.00;101077.34;5052455;28;45673;-73
2023/10/17 08:37:30;;;;;;;;;13.75;9.50;;;;;11.36;100.00;101066.75;5056246;28;46867;-73
2023/10/17 08:39:57;;;;;;;;;9.50;9.00;;;;;11.45;100.00;101072.16;5054963;28;45468;-73
2023/10/17 08:44:55;;;;;;;;;13.25;9.00;;;;;11.59;100.00;101077.59;5056075;28;45439;-73
2023/10/17 08:47:24;;;;;;;;;11.00;8.25;;;;;11.62;100.00;101072.34;5054650;28;46550;-71
2023/10/17 08:49:50;;;;;;;;;14.75;11.75;;;;;11.68;100.00;101064.47;5056074;28;45375;-72
2023/10/17 08:52:28;;;;;;;;;9.75;8.00;;;;;11.71;100.00;101053.91;5055845;28;51200;-72
2023/10/17 08:54:54;;;;;;;;;11.50;9.00;;;;;11.75;100.00;101058.34;5054508;28;45473;-73
2023/10/17 08:57:20;;;;;;;;;11.00;9.50;;;;;11.74;100.00;101047.75;5055902;28;46251;-72
2023/10/17 09:02:29;;;;;;;;;17.00;14.00;;;;;11.94;100.00;101074.44;5054646;28;45337;-72
2023/10/17 09:05:27;;;;;;;;;9.50;9.50;;;;;11.98;100.00;101071.81;5054645;28;46772;-74
2023/10/17 09:07:56;;;;;;;;;16.00;9.25;;;;;12.04;100.00;101061.31;5049813;28;46332;-72
2023/10/17 09:10:39;;;;;;;;;14.00;11.50;;;;;12.09;100.00;101060.44;5055653;28;45487;-73
2023/10/17 09:15:50;;;;;;;;;10.75;9.00;;;;;12.22;100.00;101057.03;5053928;28;45462;-72
2023/10/17 09:18:36;;;;;;;;;14.00;10.00;;;;;12.24;100.00;101048.22;5050631;28;46768;-73
2023/10/17 09:21:05;;;;;;;;;10.25;9.25;;;;;12.36;100.00;101047.44;5053834;28;45575;-72
2023/10/17 09:23:31;;;;;;;;;9.75;9.00;;;;;12.35;100.00;101032.41;5056305;28;45458;-72
2023/10/17 09:26:07;;;;;;;;;12.50;12.50;;;;;12.41;100.00;101043.06;5052783;28;45765;-72
2023/10/17 09:28:33;;;;;;;;;16.00;10.25;;;;;12.40;100.00;101043.03;5053832;28;46579;-73
2023/10/17 09:31:06;;;;;;;;;15.00;11.50;;;;;12.43;100.00;101043.97;5054037;28;45568;-72
2023/10/17 09:33:33;;;;;;;;;14.00;12.25;;;;;12.46;100.00;101036.00;5056169;28;45288;-74
2023/10/17 09:36:00;;;;;;;;;16.00;12.25;;;;;12.53;100.00;101039.63;5054475;28;45590;-72
2023/10/17 09:38:31;;;;;;;;;11.25;11.25;;;;;12.60;100.00;101030.81;5055298;28;45317;-74
2023/10/17 09:41:03;;;;;;;;;13.25;10.00;;;;;12.63;100.00;101040.56;5053703;28;45531;-72
2023/10/17 09:43:29;;;;;;;;;12.50;11.50;;;;;12.58;100.00;101033.47;5053948;28;45510;-72
2023/10/17 09:46:02;;;;;;;;;21.50;15.00;;;;;12.65;100.00;101030.84;5054646;28;45494;-73
2023/10/17 09:51:03;;;;;;;;;14.50;11.00;;;;;12.78;100.00;101030.00;4981742;26;45568;-74
2023/10/17 09:53:33;;;;;;;;;17.50;11.00;;;;;12.77;100.00;101033.56;5026534;28;45457;-73
2023/10/17 09:56:03;;;;;;;;;13.25;10.00;;;;;12.85;100.00;101037.16;5034337;28;45369;-72
2023/10/17 09:58:32;;;;;;;;;13.25;11.25;;;;;12.86;100.00;101025.66;5014472;28;47069;-72
2023/10/17 10:01:05;;;;;;;;;15.75;12.25;;;;;12.94;100.00;101033.63;5019287;28;45331;-72
2023/10/17 10:03:30;;;;;;;;;13.00;12.00;;;;;12.98;100.00;101020.41;5028155;28;45509;-73
2023/10/17 10:06:34;;;;;;;;;11.50;11.50;;;;;13.04;100.00;101012.47;5028028;28;45558;-74
2023/10/17 10:09:14;;;;;;;;;16.75;13.50;;;;;13.13;100.00;101021.34;5030290;28;46557;-73
2023/10/17 10:11:49;;;;;;;;;16.00;14.75;;;;;13.20;100.00;101029.31;5024153;28;45524;-72
2023/10/17 10:14:40;;;;;;;;;17.75;14.75;;;;;13.28;100.00;101024.97;5030609;28;45537;-73
2023/10/17 10:17:08;;;;;;;;;16.00;13.75;;;;;13.31;100.00;101027.63;5024347;28;45477;-72
2023/10/17 10:19:43;;;;;;;;;16.75;12.00;;;;;13.42;100.00;101024.09;5029570;28;45441;-73
2023/10/17 10:22:13;;;;;;;;;13.75;13.00;;;;;13.49;100.00;101021.50;5035080;28;45548;-73
2023/10/17 10:24:40;;;;;;;;;12.00;12.00;;;;;13.50;100.00;101017.06;5028815;28;45530;-73
2023/10/17 10:27:24;;;;;;;;;15.25;13.25;;;;;13.64;100.00;101031.25;5011399;28;45541;-72
2023/10/17 10:29:55;;;;;;;;;12.75;11.75;;;;;13.70;100.00;101007.38;5025750;28;46568;-71
2023/10/17 10:32:35;;;;;;;;;13.33;11.00;;;;;13.78;100.00;101013.56;5024592;28;45784;-71
2023/10/17 10:35:07;;;;;;;;;14.75;12.00;;;;;13.84;100.00;101007.38;5032099;28;45642;-70
2023/10/17 10:37:56;;;;;;;;;11.00;9.67;;;;;13.80;100.00;100985.28;5031894;28;45848;-71
2023/10/17 10:40:24;;;;;;;;;11.00;11.00;;;;;14.00;100.00;101002.94;5031969;28;47466;-70
2023/10/17 10:42:53;;;;;;;;;12.00;12.00;;;;;14.09;100.00;101001.19;5032467;28;45469;-74
2023/10/17 10:45:49;;;;;;;;;11.33;11.33;;;;;14.13;100.00;100989.66;5035586;28;45617;-72
2023/10/17 10:48:15;;;;;;;;;12.50;12.00;;;;;14.24;100.00;100992.31;5032425;28;45527;-73
2023/10/17 10:50:43;;;;;;;;;15.67;12.67;;;;;14.19;100.00;100967.53;5027294;28;46849;-73
2023/10/17 10:53:24;;;;;;;;;14.67;13.67;;;;;14.40;100.00;100995.81;5010556;28;45491;-73
2023/10/17 10:56:09;;;;;;;;;16.25;12.00;;;;;14.48;100.00;100994.06;5026547;28;45967;-71
2023/10/17 10:58:42;;;;;;;;;15.33;13.00;;;;;14.60;100.00;100980.75;5028692;28;45307;-71
2023/10/17 11:01:07;;;;;;;;;10.67;9.00;;;;;14.67;100.00;100982.50;5028268;28;46251;-71
2023/10/17 11:03:39;;;;;;;;;12.67;12.00;;;;;14.78;100.00;100978.91;5030335;28;45443;-72
2023/10/17 11:06:04;;;;;;;;;10.00;10.00;;;;;14.79;100.00;100978.91;5030308;28;45494;-72
2023/10/17 11:08:45;;;;;;;;;10.33;10.33;;;;;14.81;100.00;100968.28;5029250;28;45497;-73
2023/10/17 11:11:11;;;;;;;;;13.33;13.33;;;;;14.86;100.00;100974.44;5028825;28;47088;-72
2023/10/17 11:13:39;;;;;;;;;11.00;11.00;;;;;14.85;100.00;100972.69;5030989;28;45731;-71
2023/10/17 11:16:05;;;;;;;;;12.67;10.33;;;;;14.93;100.00;100979.75;5027769;28;45569;-73
2023/10/17 11:18:34;;;;;;;;;13.00;10.00;;;;;15.02;100.00;100973.50;5014186;28;45576;-71
2023/10/17 11:21:00;;;;;;;;;15.67;11.00;;;;;15.08;100.00;100968.16;5031961;28;46639;-72
2023/10/17 11:23:27;;;;;;;;;12.00;10.33;;;;;15.13;100.00;100965.47;5032923;28;45587;-72
2023/10/17 11:25:53;;;;;;;;;11.33;9.67;;;;;15.17;100.00;100968.06;5028754;28;45658;-72
2023/10/17 11:28:18;;;;;;;;;10.00;10.00;;;;;15.15;100.00;100959.22;5031315;28;45481;-71
2023/10/17 11:30:45;;;;;;;;;10.33;8.00;;;;;15.26;100.00;100960.94;5012013;28;68555;-71
2023/10/17 11:33:13;;;;;;;;;8.67;8.67;;;;;15.30;100.00;100957.38;5029922;28;45563;-72
2023/10/17 11:35:47;;;;;;;;;7.67;7.67;;;;;15.37;100.00;100952.00;5032164;28;45559;-71
2023/10/17 11:38:37;;;;;;;;;13.00;10.00;;;;;15.36;100.00;100925.41;5030879;28;46305;-71
2023/10/17 11:41:04;;;;;;;;;10.33;8.33;;;;;15.48;100.00;100930.63;5030171;28;46579;-74
2023/10/17 11:43:34;;;;;;;;;6.67;6.67;;;;;15.52;100.00;100919.09;5032151;28;45495;-73
2023/10/17 11:46:03;;;;;;;;;7.67;7.33;;;;;15.58;100.00;100911.03;5023661;28;45724;-73
2023/10/17 11:48:36;;;;;;;;;7.00;6.00;;;;;15.67;100.00;100905.69;5029944;28;45625;-73
2023/10/17 11:51:12;;;;;;;;;9.00;7.67;;;;;15.77;100.00;100911.81;5031380;28;45758;-71
2023/10/17 11:54:07;;;;;;;;;10.33;7.67;;;;;15.85;100.00;100906.41;5029922;28;45621;-71
2023/10/17 11:56:39;;;;;;;;;14.00;8.00;;;;;15.87;100.00;100896.59;5025982;28;45541;-72
2023/10/17 11:59:10;;;;;;;;;10.33;7.00;;;;;15.90;100.00;100888.59;5029660;28;45628;-71
2023/10/17 12:01:36;;;;;;;;;7.00;7.00;;;;;15.95;100.00;100885.00;5028100;28;46987;-74
2023/10/17 12:04:15;;;;;;;;;12.33;10.00;;;;;15.96;100.00;100888.53;5030704;28;45997;-69
2023/10/17 12:06:44;;;;;;;;;10.33;8.33;;;;;16.04;100.00;100889.34;5028702;28;45559;-70
2023/10/17 12:09:22;;;;;;;;;8.67;8.33;;;;;16.10;100.00;100880.41;5027496;28;45531;-71
2023/10/17 12:11:49;;;;;;;;;9.67;8.67;;;;;16.14;100.00;100880.38;5026790;28;46491;-73
2023/10/17 12:14:21;;;;;;;;;9.67;8.00;;;;;16.20;100.00;100884.75;5028288;28;47159;-76
2023/10/17 12:16:53;;;;;;;;;10.00;8.67;;;;;16.27;100.00;100881.09;5027894;28;46980;-75
2023/10/17 12:19:26;;;;;;;;;7.67;7.67;;;;;16.33;100.00;100866.81;5025279;28;45626;-74
2023/10/17 12:21:53;;;;;;;;;8.33;7.00;;;;;16.39;100.00;100869.41;5024980;28;46021;-74
2023/10/17 12:24:28;;;;;;;;;8.67;8.00;;;;;16.45;100.00;100858.66;5029353;28;45530;-74
2023/10/17 12:26:53;;;;;;;;;9.00;7.00;;;;;16.53;100.00;100862.13;5031257;28;45658;-74
2023/10/17 12:29:19;;;;;;;;;9.67;9.67;;;;;16.60;100.00;100853.13;5026622;28;46529;-74
2023/10/17 12:31:45;;;;;;;;;8.33;8.00;;;;;16.65;100.00;100850.41;5028218;28;47871;-74
2023/10/17 12:34:11;;;;;;;;;8.00;7.00;;;;;16.78;100.00;100846.72;5030184;28;45393;-74
2023/10/17 12:36:36;;;;;;;;;8.67;7.67;;;;;16.92;100.00;100857.16;5027900;28;45492;-76
2023/10/17 12:39:08;;;;;;;;;7.67;7.67;;;;;17.01;100.00;100839.25;5026597;28;45508;-77
2023/10/17 12:41:35;;;;;;;;;6.67;6.67;;;;;17.20;100.00;100836.28;5030008;28;46542;-76
2023/10/17 12:44:00;;;;;;;;;11.00;8.00;;;;;17.34;100.00;100833.41;5025636;28;45890;-76
2023/10/17 12:46:26;;;;;;;;;8.33;5.33;;;;;17.47;100.00;100826.94;5026177;28;45467;-75
2023/10/17 12:48:51;;;;;;;;;10.00;8.33;;;;;17.55;100.00;100820.56;5028034;28;47146;-76
2023/10/17 12:51:17;;;;;;;;;10.33;8.67;;;;;17.62;100.00;100823.97;5029672;28;46423;-74
2023/10/17 12:53:42;;;;;;;;;7.00;5.67;;;;;17.63;100.00;100820.44;5009767;28;45664;-75
2023/10/17 12:56:11;;;;;;;;;7.00;7.00;;;;;17.62;100.00;100815.97;5028587;28;45416;-75
2023/10/17 12:58:37;;;;;;;;;8.00;6.00;;;;;17.60;100.00;100815.13;5029975;28;45516;-74
2023/10/17 13:01:06;;;;;;;;;7.67;6.00;;;;;17.60;100.00;100812.47;5029655;28;59771;-75
2023/10/17 13:03:38;;;;;;;;;7.67;7.67;;;;;17.53;100.00;100802.81;5029792;28;45408;-73
2023/10/17 13:06:06;;;;;;;;;10.67;7.33;;;;;17.54;100.00;100808.13;5027602;28;46903;-74
2023/10/17 13:08:32;;;;;;;;;8.00;7.00;;;;;17.43;100.00;100793.22;5010009;28;45450;-75
2023/10/17 13:10:58;;;;;;;;;7.33;7.33;;;;;17.49;100.00;100803.78;5025214;28;46381;-73
2023/10/17 13:13:27;;;;;;;;;7.00;7.00;;;;;17.49;100.00;100803.78;5024289;28;45472;-75
2023/10/17 13:15:54;;;;;;;;;7.00;7.00;;;;;17.46;100.00;100798.47;5029097;28;45616;-75
2023/10/17 13:18:20;;;;;;;;;8.67;6.00;;;;;17.50;100.00;100794.84;5028919;28;46188;-75
2023/10/17 13:20:54;;;;;;;;;6.67;6.67;;;;;17.50;100.00;100797.53;5028331;28;47353;-75
2023/10/17 13:23:20;;;;;;;;;6.00;5.00;;;;;17.46;100.00;100787.78;5029401;28;45711;-74
2023/10/17 13:25:45;;;;;;;;;6.67;6.67;;;;;17.47;100.00;100781.53;5010853;28;45573;-75
2023/10/17 13:28:11;;;;;;;;;7.67;7.67;;;;;17.49;100.00;100783.28;5029515;28;45598;-74
2023/10/17 13:30:36;;;;;;;;;7.00;7.00;;;;;17.53;100.00;100786.81;5025138;28;45746;-75
2023/10/17 13:33:02;;;;;;;;;7.33;7.00;;;;;17.58;100.00;100776.00;5028917;28;45966;-74